sensor_id;sensor_type;location;lat;lon;timestamp;temperature;humidity
13600;DHT22;6871;51.34740610;4.31323160;2023-11-18T00:00:36;14.30;90.90
13600;DHT22;6871;51.34740610;4.31323160;2023-11-18T00:03:05;14.30;90.90
13600;DHT22;6871;51.34740610;4.31323160;2023-11-18T00:05:34;14.30;90.80
13600;DHT22;6871;51.34740610;4.31323160;2023-11-18T00:08:04;14.30;90.80
13600;DHT22;6871;51.34740610;4.31323160;2023-11-18T00:10:33;14.30;90.80
13600;DHT22;6871;51.34740610;4.31323160;2023-11-18T00:13:03;14.30;91.00
13600;DHT22;6871;51.34740610;4.31323160;2023-11-18T00:15:32;14.30;91.00
13600;DHT22;6871;51.34740610;4.31323160;2023-11-18T00:18:02;14.30;91.00
13600;DHT22;6871;51.34740610;4.31323160;2023-11-18T00:20:32;14.30;90.90
13600;DHT22;6871;51.34740610;4.31323160;2023-11-18T00:23:03;14.30;90.90
13600;DHT22;6871;51.34740610;4.31323160;2023-11-18T00:25:32;14.30;90.90
13600;DHT22;6871;51.34740610;4.31323160;2023-11-18T00:28:04;14.30;90.90
13600;DHT22;6871;51.34740610;4.31323160;2023-11-18T00:30:35;14.30;90.90
13600;DHT22;6871;51.34740610;4.31323160;2023-11-18T00:33:04;14.30;90.90
13600;DHT22;6871;51.34740610;4.31323160;2023-11-18T00:35:33;14.30;90.80
13600;DHT22;6871;51.34740610;4.31323160;2023-11-18T00:38:02;14.30;90.80
13600;DHT22;6871;51.34740610;4.31323160;2023-11-18T00:40:32;14.30;90.80
13600;DHT22;6871;51.34740610;4.31323160;2023-11-18T00:43:01;14.30;90.80
13600;DHT22;6871;51.34740610;4.31323160;2023-11-18T00:45:31;14.30;90.80
13600;DHT22;6871;51.34740610;4.31323160;2023-11-18T00:48:00;14.30;90.90
13600;DHT22;6871;51.34740610;4.31323160;2023-11-18T00:50:31;14.30;90.80
13600;DHT22;6871;51.34740610;4.31323160;2023-11-18T00:53:01;14.30;90.80
13600;DHT22;6871;51.34740610;4.31323160;2023-11-18T00:55:30;14.40;90.80
13600;DHT22;6871;51.34740610;4.31323160;2023-11-18T00:58:00;14.30;90.80
13600;DHT22;6871;51.34740610;4.31323160;2023-11-18T01:00:29;14.30;90.70
13600;DHT22;6871;51.34740610;4.31323160;2023-11-18T01:02:59;14.30;90.70
13600;DHT22;6871;51.34740610;4.31323160;2023-11-18T01:05:28;14.30;90.80
13600;DHT22;6871;51.34740610;4.31323160;2023-11-18T01:07:59;14.30;90.70
13600;DHT22;6871;51.34740610;4.31323160;2023-11-18T01:10:28;14.30;90.70
13600;DHT22;6871;51.34740610;4.31323160;2023-11-18T01:12:59;14.30;90.70
13600;DHT22;6871;51.34740610;4.31323160;2023-11-18T01:15:28;14.30;90.70
13600;DHT22;6871;51.34740610;4.31323160;2023-11-18T01:17:59;14.30;90.70
13600;DHT22;6871;51.34740610;4.31323160;2023-11-18T01:20:28;14.30;90.70
13600;DHT22;6871;51.34740610;4.31323160;2023-11-18T01:22:58;14.30;90.70
13600;DHT22;6871;51.34740610;4.31323160;2023-11-18T01:25:28;14.30;90.70
13600;DHT22;6871;51.34740610;4.31323160;2023-11-18T01:27:57;14.30;90.70
13600;DHT22;6871;51.34740610;4.31323160;2023-11-18T01:30:27;14.30;90.70
13600;DHT22;6871;51.34740610;4.31323160;2023-11-18T01:32:56;14.30;90.70
13600;DHT22;6871;51.34740610;4.31323160;2023-11-18T01:35:27;14.30;90.70
13600;DHT22;6871;51.34740610;4.31323160;2023-11-18T01:37:57;14.30;90.70
13600;DHT22;6871;51.34740610;4.31323160;2023-11-18T01:40:26;14.30;90.70
13600;DHT22;6871;51.34740610;4.31323160;2023-11-18T01:42:57;14.30;90.70
13600;DHT22;6871;51.34740610;4.31323160;2023-11-18T01:45:27;14.30;90.60
13600;DHT22;6871;51.34740610;4.31323160;2023-11-18T01:47:58;14.30;90.70
13600;DHT22;6871;51.34740610;4.31323160;2023-11-18T01:50:27;14.30;90.70
13600;DHT22;6871;51.34740610;4.31323160;2023-11-18T01:52:57;14.30;90.70
13600;DHT22;6871;51.34740610;4.31323160;2023-11-18T01:55:28;14.30;90.80
13600;DHT22;6871;51.34740610;4.31323160;2023-11-18T01:57:57;14.30;90.70
13600;DHT22;6871;51.34740610;4.31323160;2023-11-18T02:00:27;14.30;90.70
13600;DHT22;6871;51.34740610;4.31323160;2023-11-18T02:02:58;14.30;90.70
13600;DHT22;6871;51.34740610;4.31323160;2023-11-18T02:05:27;14.30;90.70
13600;DHT22;6871;51.34740610;4.31323160;2023-11-18T02:07:57;14.30;90.70
13600;DHT22;6871;51.34740610;4.31323160;2023-11-18T02:10:28;14.30;90.70
13600;DHT22;6871;51.34740610;4.31323160;2023-11-18T02:13:00;14.30;90.70
13600;DHT22;6871;51.34740610;4.31323160;2023-11-18T02:15:31;14.30;90.70
13600;DHT22;6871;51.34740610;4.31323160;2023-11-18T02:18:03;14.30;90.60
13600;DHT22;6871;51.34740610;4.31323160;2023-11-18T02:20:34;14.30;90.60
13600;DHT22;6871;51.34740610;4.31323160;2023-11-18T02:23:05;14.30;90.60
13600;DHT22;6871;51.34740610;4.31323160;2023-11-18T02:25:40;14.30;90.70
13600;DHT22;6871;51.34740610;4.31323160;2023-11-18T02:28:11;14.30;90.70
13600;DHT22;6871;51.34740610;4.31323160;2023-11-18T02:30:42;14.30;90.60
13600;DHT22;6871;51.34740610;4.31323160;2023-11-18T02:33:16;14.30;90.60
13600;DHT22;6871;51.34740610;4.31323160;2023-11-18T02:35:51;14.30;90.60
13600;DHT22;6871;51.34740610;4.31323160;2023-11-18T02:38:22;14.30;90.70
13600;DHT22;6871;51.34740610;4.31323160;2023-11-18T02:40:53;14.20;90.60
13600;DHT22;6871;51.34740610;4.31323160;2023-11-18T02:43:25;14.30;90.70
13600;DHT22;6871;51.34740610;4.31323160;2023-11-18T02:45:58;14.20;90.60
13600;DHT22;6871;51.34740610;4.31323160;2023-11-18T02:48:28;14.20;90.60
13600;DHT22;6871;51.34740610;4.31323160;2023-11-18T02:50:59;14.20;90.60
13600;DHT22;6871;51.34740610;4.31323160;2023-11-18T02:53:29;14.20;91.00
13600;DHT22;6871;51.34740610;4.31323160;2023-11-18T02:55:58;14.20;90.60
13600;DHT22;6871;51.34740610;4.31323160;2023-11-18T02:58:29;14.20;90.60
13600;DHT22;6871;51.34740610;4.31323160;2023-11-18T03:00:59;14.20;90.60
13600;DHT22;6871;51.34740610;4.31323160;2023-11-18T03:03:28;14.20;90.60
13600;DHT22;6871;51.34740610;4.31323160;2023-11-18T03:05:58;14.30;90.60
13600;DHT22;6871;51.34740610;4.31323160;2023-11-18T03:08:27;14.20;90.60
13600;DHT22;6871;51.34740610;4.31323160;2023-11-18T03:10:57;14.30;90.60
13600;DHT22;6871;51.34740610;4.31323160;2023-11-18T03:13:26;14.20;90.60
13600;DHT22;6871;51.34740610;4.31323160;2023-11-18T03:15:56;14.20;90.50
13600;DHT22;6871;51.34740610;4.31323160;2023-11-18T03:18:25;14.20;90.50
13600;DHT22;6871;51.34740610;4.31323160;2023-11-18T03:20:54;14.20;90.50
13600;DHT22;6871;51.34740610;4.31323160;2023-11-18T03:23:23;14.20;90.50
13600;DHT22;6871;51.34740610;4.31323160;2023-11-18T03:25:53;14.20;90.60
13600;DHT22;6871;51.34740610;4.31323160;2023-11-18T03:28:22;14.20;90.50
13600;DHT22;6871;51.34740610;4.31323160;2023-11-18T03:30:52;14.20;90.50
13600;DHT22;6871;51.34740610;4.31323160;2023-11-18T03:33:21;14.20;90.50
13600;DHT22;6871;51.34740610;4.31323160;2023-11-18T03:35:51;14.20;90.50
13600;DHT22;6871;51.34740610;4.31323160;2023-11-18T03:38:20;14.20;90.50
13600;DHT22;6871;51.34740610;4.31323160;2023-11-18T03:40:49;14.20;90.50
13600;DHT22;6871;51.34740610;4.31323160;2023-11-18T03:43:20;14.20;90.50
13600;DHT22;6871;51.34740610;4.31323160;2023-11-18T03:45:50;14.20;90.50
13600;DHT22;6871;51.34740610;4.31323160;2023-11-18T03:48:20;14.20;90.50
13600;DHT22;6871;51.34740610;4.31323160;2023-11-18T03:50:49;14.20;90.50
13600;DHT22;6871;51.34740610;4.31323160;2023-11-18T03:53:18;14.20;90.50
13600;DHT22;6871;51.34740610;4.31323160;2023-11-18T03:55:47;14.20;90.50
13600;DHT22;6871;51.34740610;4.31323160;2023-11-18T03:58:18;14.20;90.50
13600;DHT22;6871;51.34740610;4.31323160;2023-11-18T04:00:48;14.20;90.50
13600;DHT22;6871;51.34740610;4.31323160;2023-11-18T04:03:17;14.20;90.50
13600;DHT22;6871;51.34740610;4.31323160;2023-11-18T04:05:46;14.20;90.50
13600;DHT22;6871;51.34740610;4.31323160;2023-11-18T04:08:16;14.20;90.50
13600;DHT22;6871;51.34740610;4.31323160;2023-11-18T04:10:45;14.20;90.50
13600;DHT22;6871;51.34740610;4.31323160;2023-11-18T04:13:14;14.20;90.50
13600;DHT22;6871;51.34740610;4.31323160;2023-11-18T04:15:43;14.20;90.50
13600;DHT22;6871;51.34740610;4.31323160;2023-11-18T04:18:13;14.20;90.50
13600;DHT22;6871;51.34740610;4.31323160;2023-11-18T04:20:42;14.20;90.50
13600;DHT22;6871;51.34740610;4.31323160;2023-11-18T04:23:12;14.20;90.50
13600;DHT22;6871;51.34740610;4.31323160;2023-11-18T04:25:42;14.20;90.50
13600;DHT22;6871;51.34740610;4.31323160;2023-11-18T04:28:11;14.20;90.50
13600;DHT22;6871;51.34740610;4.31323160;2023-11-18T04:30:40;14.20;90.50
13600;DHT22;6871;51.34740610;4.31323160;2023-11-18T04:33:10;14.20;90.50
13600;DHT22;6871;51.34740610;4.31323160;2023-11-18T04:35:41;14.20;90.50
13600;DHT22;6871;51.34740610;4.31323160;2023-11-18T04:38:10;14.20;90.50
13600;DHT22;6871;51.34740610;4.31323160;2023-11-18T04:40:40;14.20;90.40
13600;DHT22;6871;51.34740610;4.31323160;2023-11-18T04:43:11;14.20;90.50
13600;DHT22;6871;51.34740610;4.31323160;2023-11-18T04:45:41;14.20;90.50
13600;DHT22;6871;51.34740610;4.31323160;2023-11-18T04:48:11;14.20;90.50
13600;DHT22;6871;51.34740610;4.31323160;2023-11-18T04:50:41;14.20;90.50
13600;DHT22;6871;51.34740610;4.31323160;2023-11-18T04:53:10;14.20;90.40
13600;DHT22;6871;51.34740610;4.31323160;2023-11-18T04:55:40;14.20;90.40
13600;DHT22;6871;51.34740610;4.31323160;2023-11-18T04:58:09;14.20;90.50
13600;DHT22;6871;51.34740610;4.31323160;2023-11-18T05:00:39;14.20;90.50
13600;DHT22;6871;51.34740610;4.31323160;2023-11-18T05:03:10;14.20;90.50
13600;DHT22;6871;51.34740610;4.31323160;2023-11-18T05:05:41;14.10;90.40
13600;DHT22;6871;51.34740610;4.31323160;2023-11-18T05:08:18;14.20;90.40
13600;DHT22;6871;51.34740610;4.31323160;2023-11-18T05:10:48;14.20;90.50
13600;DHT22;6871;51.34740610;4.31323160;2023-11-18T05:13:18;14.10;90.50
13600;DHT22;6871;51.34740610;4.31323160;2023-11-18T05:15:47;14.10;90.50
13600;DHT22;6871;51.34740610;4.31323160;2023-11-18T05:18:17;14.10;90.40
13600;DHT22;6871;51.34740610;4.31323160;2023-11-18T05:20:47;14.10;90.50
13600;DHT22;6871;51.34740610;4.31323160;2023-11-18T05:23:16;14.20;90.50
13600;DHT22;6871;51.34740610;4.31323160;2023-11-18T05:25:45;14.10;90.50
13600;DHT22;6871;51.34740610;4.31323160;2023-11-18T05:28:16;14.20;90.40
13600;DHT22;6871;51.34740610;4.31323160;2023-11-18T05:30:47;14.20;90.40
13600;DHT22;6871;51.34740610;4.31323160;2023-11-18T05:33:16;14.20;90.40
13600;DHT22;6871;51.34740610;4.31323160;2023-11-18T05:35:46;14.10;90.40
13600;DHT22;6871;51.34740610;4.31323160;2023-11-18T05:38:17;14.10;90.40
13600;DHT22;6871;51.34740610;4.31323160;2023-11-18T05:40:48;14.10;90.40
13600;DHT22;6871;51.34740610;4.31323160;2023-11-18T05:43:20;14.20;90.40
13600;DHT22;6871;51.34740610;4.31323160;2023-11-18T05:45:50;14.10;90.50
13600;DHT22;6871;51.34740610;4.31323160;2023-11-18T05:48:26;14.10;90.40
13600;DHT22;6871;51.34740610;4.31323160;2023-11-18T05:50:55;14.10;90.40
13600;DHT22;6871;51.34740610;4.31323160;2023-11-18T05:53:24;14.10;90.40
13600;DHT22;6871;51.34740610;4.31323160;2023-11-18T05:55:54;14.10;90.40
13600;DHT22;6871;51.34740610;4.31323160;2023-11-18T05:58:23;14.10;90.40
13600;DHT22;6871;51.34740610;4.31323160;2023-11-18T06:00:52;14.10;90.40
13600;DHT22;6871;51.34740610;4.31323160;2023-11-18T06:03:22;14.10;90.50
13600;DHT22;6871;51.34740610;4.31323160;2023-11-18T06:05:51;14.10;90.40
13600;DHT22;6871;51.34740610;4.31323160;2023-11-18T06:08:20;14.10;90.40
13600;DHT22;6871;51.34740610;4.31323160;2023-11-18T06:10:50;14.10;90.40
13600;DHT22;6871;51.34740610;4.31323160;2023-11-18T06:13:23;14.10;90.40
13600;DHT22;6871;51.34740610;4.31323160;2023-11-18T06:15:52;14.10;90.40
13600;DHT22;6871;51.34740610;4.31323160;2023-11-18T06:18:21;14.10;90.30
13600;DHT22;6871;51.34740610;4.31323160;2023-11-18T06:20:51;14.10;90.40
13600;DHT22;6871;51.34740610;4.31323160;2023-11-18T06:23:21;14.10;90.40
13600;DHT22;6871;51.34740610;4.31323160;2023-11-18T06:25:50;14.10;90.40
13600;DHT22;6871;51.34740610;4.31323160;2023-11-18T06:28:20;14.10;90.40
13600;DHT22;6871;51.34740610;4.31323160;2023-11-18T06:30:49;14.10;90.40
13600;DHT22;6871;51.34740610;4.31323160;2023-11-18T06:33:19;14.10;90.40
13600;DHT22;6871;51.34740610;4.31323160;2023-11-18T06:35:49;14.10;90.40
13600;DHT22;6871;51.34740610;4.31323160;2023-11-18T06:38:20;14.10;90.40
13600;DHT22;6871;51.34740610;4.31323160;2023-11-18T06:40:50;14.10;90.40
13600;DHT22;6871;51.34740610;4.31323160;2023-11-18T06:43:21;14.10;90.40
13600;DHT22;6871;51.34740610;4.31323160;2023-11-18T06:45:50;14.10;90.40
13600;DHT22;6871;51.34740610;4.31323160;2023-11-18T06:48:19;14.10;90.40
13600;DHT22;6871;51.34740610;4.31323160;2023-11-18T06:50:50;14.10;90.40
13600;DHT22;6871;51.34740610;4.31323160;2023-11-18T06:53:19;14.10;90.40
13600;DHT22;6871;51.34740610;4.31323160;2023-11-18T06:55:48;14.10;90.40
13600;DHT22;6871;51.34740610;4.31323160;2023-11-18T06:58:17;14.10;90.40
13600;DHT22;6871;51.34740610;4.31323160;2023-11-18T07:00:47;14.10;90.40
13600;DHT22;6871;51.34740610;4.31323160;2023-11-18T07:03:17;14.10;90.40
13600;DHT22;6871;51.34740610;4.31323160;2023-11-18T07:05:46;14.10;90.40
13600;DHT22;6871;51.34740610;4.31323160;2023-11-18T07:08:16;14.10;90.40
13600;DHT22;6871;51.34740610;4.31323160;2023-11-18T07:10:45;14.10;90.40
13600;DHT22;6871;51.34740610;4.31323160;2023-11-18T07:13:16;14.10;90.40
13600;DHT22;6871;51.34740610;4.31323160;2023-11-18T07:15:45;14.10;90.40
13600;DHT22;6871;51.34740610;4.31323160;2023-11-18T07:18:14;14.10;90.40
13600;DHT22;6871;51.34740610;4.31323160;2023-11-18T07:20:44;14.10;90.40
13600;DHT22;6871;51.34740610;4.31323160;2023-11-18T07:23:13;14.10;90.40
13600;DHT22;6871;51.34740610;4.31323160;2023-11-18T07:25:44;14.10;90.40
13600;DHT22;6871;51.34740610;4.31323160;2023-11-18T07:28:13;14.10;90.30
13600;DHT22;6871;51.34740610;4.31323160;2023-11-18T07:30:45;14.10;90.30
13600;DHT22;6871;51.34740610;4.31323160;2023-11-18T07:33:15;14.10;90.40
13600;DHT22;6871;51.34740610;4.31323160;2023-11-18T07:35:44;14.10;90.40
13600;DHT22;6871;51.34740610;4.31323160;2023-11-18T07:38:16;14.10;90.40
13600;DHT22;6871;51.34740610;4.31323160;2023-11-18T07:40:47;14.10;90.40
13600;DHT22;6871;51.34740610;4.31323160;2023-11-18T07:43:17;14.10;90.40
13600;DHT22;6871;51.34740610;4.31323160;2023-11-18T07:45:48;14.10;90.40
13600;DHT22;6871;51.34740610;4.31323160;2023-11-18T07:48:19;14.10;90.40
13600;DHT22;6871;51.34740610;4.31323160;2023-11-18T07:50:49;14.10;90.40
13600;DHT22;6871;51.34740610;4.31323160;2023-11-18T07:53:18;14.10;90.40
13600;DHT22;6871;51.34740610;4.31323160;2023-11-18T07:55:48;14.10;90.40
13600;DHT22;6871;51.34740610;4.31323160;2023-11-18T07:58:18;14.10;90.40
13600;DHT22;6871;51.34740610;4.31323160;2023-11-18T08:00:48;14.10;90.40
13600;DHT22;6871;51.34740610;4.31323160;2023-11-18T08:03:17;14.10;90.40
13600;DHT22;6871;51.34740610;4.31323160;2023-11-18T08:05:48;14.10;90.40
13600;DHT22;6871;51.34740610;4.31323160;2023-11-18T08:08:18;14.10;90.40
13600;DHT22;6871;51.34740610;4.31323160;2023-11-18T08:10:48;14.10;90.40
13600;DHT22;6871;51.34740610;4.31323160;2023-11-18T08:13:18;14.10;90.40
13600;DHT22;6871;51.34740610;4.31323160;2023-11-18T08:15:47;14.10;90.40
13600;DHT22;6871;51.34740610;4.31323160;2023-11-18T08:18:17;14.10;90.50
13600;DHT22;6871;51.34740610;4.31323160;2023-11-18T08:20:46;14.10;90.50
13600;DHT22;6871;51.34740610;4.31323160;2023-11-18T08:23:16;14.00;90.70
13600;DHT22;6871;51.34740610;4.31323160;2023-11-18T08:25:47;14.00;90.60
13600;DHT22;6871;51.34740610;4.31323160;2023-11-18T08:28:17;14.10;90.60
13600;DHT22;6871;51.34740610;4.31323160;2023-11-18T08:30:47;14.10;90.60
13600;DHT22;6871;51.34740610;4.31323160;2023-11-18T08:33:19;14.10;90.60
13600;DHT22;6871;51.34740610;4.31323160;2023-11-18T08:35:50;14.10;90.60
13600;DHT22;6871;51.34740610;4.31323160;2023-11-18T08:38:20;14.10;90.50
13600;DHT22;6871;51.34740610;4.31323160;2023-11-18T08:40:49;14.10;90.50
13600;DHT22;6871;51.34740610;4.31323160;2023-11-18T08:43:19;14.10;90.50
13600;DHT22;6871;51.34740610;4.31323160;2023-11-18T08:45:48;14.10;90.50
13600;DHT22;6871;51.34740610;4.31323160;2023-11-18T08:48:18;14.10;90.50
13600;DHT22;6871;51.34740610;4.31323160;2023-11-18T08:50:47;14.10;90.50
13600;DHT22;6871;51.34740610;4.31323160;2023-11-18T08:53:16;14.10;90.50
13600;DHT22;6871;51.34740610;4.31323160;2023-11-18T08:55:46;14.10;90.50
13600;DHT22;6871;51.34740610;4.31323160;2023-11-18T08:58:21;14.10;90.50
13600;DHT22;6871;51.34740610;4.31323160;2023-11-18T09:00:57;14.10;90.60
13600;DHT22;6871;51.34740610;4.31323160;2023-11-18T09:03:32;14.10;90.60
13600;DHT22;6871;51.34740610;4.31323160;2023-11-18T09:06:08;14.00;90.50
13600;DHT22;6871;51.34740610;4.31323160;2023-11-18T09:08:40;14.10;90.50
13600;DHT22;6871;51.34740610;4.31323160;2023-11-18T09:11:12;14.00;90.60
13600;DHT22;6871;51.34740610;4.31323160;2023-11-18T09:13:44;14.10;90.60
13600;DHT22;6871;51.34740610;4.31323160;2023-11-18T09:16:15;14.00;91.00
13600;DHT22;6871;51.34740610;4.31323160;2023-11-18T09:18:45;13.90;90.70
13600;DHT22;6871;51.34740610;4.31323160;2023-11-18T09:21:14;13.60;91.00
13600;DHT22;6871;51.34740610;4.31323160;2023-11-18T09:23:45;13.70;91.10
13600;DHT22;6871;51.34740610;4.31323160;2023-11-18T09:26:15;13.70;91.00
13600;DHT22;6871;51.34740610;4.31323160;2023-11-18T09:28:45;13.80;90.90
13600;DHT22;6871;51.34740610;4.31323160;2023-11-18T09:31:14;13.80;90.90
13600;DHT22;6871;51.34740610;4.31323160;2023-11-18T09:33:44;13.90;90.80
13600;DHT22;6871;51.34740610;4.31323160;2023-11-18T09:36:15;13.90;90.80
13600;DHT22;6871;51.34740610;4.31323160;2023-11-18T09:38:46;13.90;90.70
13600;DHT22;6871;51.34740610;4.31323160;2023-11-18T09:41:15;13.90;90.70
13600;DHT22;6871;51.34740610;4.31323160;2023-11-18T09:43:46;13.90;90.70
13600;DHT22;6871;51.34740610;4.31323160;2023-11-18T09:46:20;14.00;90.70
13600;DHT22;6871;51.34740610;4.31323160;2023-11-18T09:48:51;14.00;90.60
13600;DHT22;6871;51.34740610;4.31323160;2023-11-18T09:51:22;13.90;91.40
13600;DHT22;6871;51.34740610;4.31323160;2023-11-18T09:53:53;13.90;90.90
13600;DHT22;6871;51.34740610;4.31323160;2023-11-18T09:56:31;14.00;90.80
13600;DHT22;6871;51.34740610;4.31323160;2023-11-18T09:59:10;14.00;90.70
13600;DHT22;6871;51.34740610;4.31323160;2023-11-18T10:01:42;14.00;90.70
13600;DHT22;6871;51.34740610;4.31323160;2023-11-18T10:04:12;14.00;90.70
13600;DHT22;6871;51.34740610;4.31323160;2023-11-18T10:06:45;14.00;90.60
13600;DHT22;6871;51.34740610;4.31323160;2023-11-18T10:09:15;14.00;90.80
13600;DHT22;6871;51.34740610;4.31323160;2023-11-18T10:11:47;14.00;90.80
13600;DHT22;6871;51.34740610;4.31323160;2023-11-18T10:14:16;14.00;90.90
13600;DHT22;6871;51.34740610;4.31323160;2023-11-18T10:16:46;14.00;90.90
13600;DHT22;6871;51.34740610;4.31323160;2023-11-18T10:19:15;14.00;90.70
13600;DHT22;6871;51.34740610;4.31323160;2023-11-18T10:21:45;14.00;90.80
13600;DHT22;6871;51.34740610;4.31323160;2023-11-18T10:24:17;14.00;90.80
13600;DHT22;6871;51.34740610;4.31323160;2023-11-18T10:26:55;14.10;90.80
13600;DHT22;6871;51.34740610;4.31323160;2023-11-18T10:29:25;14.10;90.70
13600;DHT22;6871;51.34740610;4.31323160;2023-11-18T10:32:05;14.10;90.60
13600;DHT22;6871;51.34740610;4.31323160;2023-11-18T10:34:37;14.10;90.60
13600;DHT22;6871;51.34740610;4.31323160;2023-11-18T10:37:08;14.10;90.60
13600;DHT22;6871;51.34740610;4.31323160;2023-11-18T10:39:38;14.10;90.90
13600;DHT22;6871;51.34740610;4.31323160;2023-11-18T10:42:26;14.10;90.80
13600;DHT22;6871;51.34740610;4.31323160;2023-11-18T10:44:58;14.10;90.70
13600;DHT22;6871;51.34740610;4.31323160;2023-11-18T10:47:32;14.10;90.90
13600;DHT22;6871;51.34740610;4.31323160;2023-11-18T10:50:03;14.00;90.70
13600;DHT22;6871;51.34740610;4.31323160;2023-11-18T10:52:33;14.10;90.70
13600;DHT22;6871;51.34740610;4.31323160;2023-11-18T11:00:16;14.10;90.60
13600;DHT22;6871;51.34740610;4.31323160;2023-11-18T11:02:47;14.10;91.20
13600;DHT22;6871;51.34740610;4.31323160;2023-11-18T11:05:28;14.10;92.30
13600;DHT22;6871;51.34740610;4.31323160;2023-11-18T11:08:01;14.20;92.10
13600;DHT22;6871;51.34740610;4.31323160;2023-11-18T11:10:32;14.20;91.80
13600;DHT22;6871;51.34740610;4.31323160;2023-11-18T11:13:03;13.50;92.40
13600;DHT22;6871;51.34740610;4.31323160;2023-11-18T11:15:43;13.10;93.30
13600;DHT22;6871;51.34740610;4.31323160;2023-11-18T11:18:14;13.30;94.80
13600;DHT22;6871;51.34740610;4.31323160;2023-11-18T11:20:53;13.50;94.80
13600;DHT22;6871;51.34740610;4.31323160;2023-11-18T11:23:27;13.70;94.10
13600;DHT22;6871;51.34740610;4.31323160;2023-11-18T11:26:04;13.80;93.40
13600;DHT22;6871;51.34740610;4.31323160;2023-11-18T11:28:40;14.00;92.80
13600;DHT22;6871;51.34740610;4.31323160;2023-11-18T11:31:14;14.00;92.40
13600;DHT22;6871;51.34740610;4.31323160;2023-11-18T11:33:49;14.10;92.20
13600;DHT22;6871;51.34740610;4.31323160;2023-11-18T11:36:21;14.10;92.00
13600;DHT22;6871;51.34740610;4.31323160;2023-11-18T11:38:53;14.10;92.00
13600;DHT22;6871;51.34740610;4.31323160;2023-11-18T11:41:24;14.10;92.00
13600;DHT22;6871;51.34740610;4.31323160;2023-11-18T11:43:55;14.10;92.10
13600;DHT22;6871;51.34740610;4.31323160;2023-11-18T11:46:27;14.10;91.90
13600;DHT22;6871;51.34740610;4.31323160;2023-11-18T11:49:01;14.10;91.80
13600;DHT22;6871;51.34740610;4.31323160;2023-11-18T11:51:36;14.10;91.70
13600;DHT22;6871;51.34740610;4.31323160;2023-11-18T11:54:09;14.10;91.70
13600;DHT22;6871;51.34740610;4.31323160;2023-11-18T11:56:42;14.10;92.00
13600;DHT22;6871;51.34740610;4.31323160;2023-11-18T11:59:15;14.10;91.60
13600;DHT22;6871;51.34740610;4.31323160;2023-11-18T12:01:44;14.10;91.50
13600;DHT22;6871;51.34740610;4.31323160;2023-11-18T12:04:16;14.10;91.50
13600;DHT22;6871;51.34740610;4.31323160;2023-11-18T12:06:50;14.00;92.00
13600;DHT22;6871;51.34740610;4.31323160;2023-11-18T12:09:21;14.10;91.70
13600;DHT22;6871;51.34740610;4.31323160;2023-11-18T12:11:50;14.10;91.60
13600;DHT22;6871;51.34740610;4.31323160;2023-11-18T12:14:20;14.10;91.50
13600;DHT22;6871;51.34740610;4.31323160;2023-11-18T12:17:04;14.10;91.50
13600;DHT22;6871;51.34740610;4.31323160;2023-11-18T12:19:38;14.10;91.50
13600;DHT22;6871;51.34740610;4.31323160;2023-11-18T12:22:16;14.10;91.50
13600;DHT22;6871;51.34740610;4.31323160;2023-11-18T12:28:14;14.10;91.50
13600;DHT22;6871;51.34740610;4.31323160;2023-11-18T12:30:46;14.10;91.50
13600;DHT22;6871;51.34740610;4.31323160;2023-11-18T12:33:24;14.10;91.50
13600;DHT22;6871;51.34740610;4.31323160;2023-11-18T12:43:10;13.90;92.00
13600;DHT22;6871;51.34740610;4.31323160;2023-11-18T12:46:07;13.90;92.20
13600;DHT22;6871;51.34740610;4.31323160;2023-11-18T12:48:37;14.00;91.90
13600;DHT22;6871;51.34740610;4.31323160;2023-11-18T12:51:08;13.80;93.10
13600;DHT22;6871;51.34740610;4.31323160;2023-11-18T12:53:41;13.80;93.10
13600;DHT22;6871;51.34740610;4.31323160;2023-11-18T12:56:11;13.90;92.90
13600;DHT22;6871;51.34740610;4.31323160;2023-11-18T12:58:41;14.00;92.60
13600;DHT22;6871;51.34740610;4.31323160;2023-11-18T13:01:11;14.00;92.40
13600;DHT22;6871;51.34740610;4.31323160;2023-11-18T13:03:43;14.00;92.20
13600;DHT22;6871;51.34740610;4.31323160;2023-11-18T13:06:13;14.10;92.10
13600;DHT22;6871;51.34740610;4.31323160;2023-11-18T13:08:42;14.10;92.00
13600;DHT22;6871;51.34740610;4.31323160;2023-11-18T13:11:14;14.10;91.90
13600;DHT22;6871;51.34740610;4.31323160;2023-11-18T13:13:45;14.10;91.90
13600;DHT22;6871;51.34740610;4.31323160;2023-11-18T13:16:34;14.10;91.80
13600;DHT22;6871;51.34740610;4.31323160;2023-11-18T13:19:06;14.10;91.80
13600;DHT22;6871;51.34740610;4.31323160;2023-11-18T13:21:37;14.10;91.70
13600;DHT22;6871;51.34740610;4.31323160;2023-11-18T13:24:07;14.10;91.70
13600;DHT22;6871;51.34740610;4.31323160;2023-11-18T13:26:37;14.10;91.70
13600;DHT22;6871;51.34740610;4.31323160;2023-11-18T13:29:06;14.10;91.70
13600;DHT22;6871;51.34740610;4.31323160;2023-11-18T13:31:36;14.10;91.70
13600;DHT22;6871;51.34740610;4.31323160;2023-11-18T13:34:06;14.10;91.60
13600;DHT22;6871;51.34740610;4.31323160;2023-11-18T13:36:36;14.10;91.60
13600;DHT22;6871;51.34740610;4.31323160;2023-11-18T13:39:08;14.10;91.60
13600;DHT22;6871;51.34740610;4.31323160;2023-11-18T13:41:40;14.10;91.60
13600;DHT22;6871;51.34740610;4.31323160;2023-11-18T13:44:10;14.10;91.60
13600;DHT22;6871;51.34740610;4.31323160;2023-11-18T13:46:43;14.10;91.60
13600;DHT22;6871;51.34740610;4.31323160;2023-11-18T13:49:12;14.10;91.60
13600;DHT22;6871;51.34740610;4.31323160;2023-11-18T13:51:43;14.10;91.60
13600;DHT22;6871;51.34740610;4.31323160;2023-11-18T13:54:18;14.10;91.60
13600;DHT22;6871;51.34740610;4.31323160;2023-11-18T13:56:51;14.10;91.60
13600;DHT22;6871;51.34740610;4.31323160;2023-11-18T13:59:40;14.10;91.60
13600;DHT22;6871;51.34740610;4.31323160;2023-11-18T14:02:13;14.10;92.00
13600;DHT22;6871;51.34740610;4.31323160;2023-11-18T14:04:44;14.10;91.60
13600;DHT22;6871;51.34740610;4.31323160;2023-11-18T14:07:16;14.10;91.60
13600;DHT22;6871;51.34740610;4.31323160;2023-11-18T14:09:45;14.10;91.60